createdAt,value
2023-05-04T00:00:31.539Z,97857.89
2023-05-04T00:03:13.190Z,97860.55
2023-05-04T00:05:42.098Z,97859.63
2023-05-04T00:08:10.041Z,97856.83
2023-05-04T00:10:37.944Z,97851.64
2023-05-04T00:13:05.935Z,97849.02
2023-05-04T00:15:34.153Z,97848.09
2023-05-04T00:18:02.241Z,97847.70
2023-05-04T00:20:30.213Z,97851.39
2023-05-04T00:22:58.229Z,97853.73
2023-05-04T00:25:26.600Z,97857.70
2023-05-04T00:27:54.580Z,97860.54
2023-05-04T00:30:23.307Z,97862.97
2023-05-04T00:32:51.541Z,97864.98
2023-05-04T00:35:20.557Z,97872.05
2023-05-04T00:37:48.534Z,97874.92
2023-05-04T00:40:16.469Z,97872.05
2023-05-04T00:42:45.272Z,97869.42
2023-05-04T00:45:14.466Z,97867.67
2023-05-04T00:47:43.220Z,97860.34
2023-05-04T00:50:12.728Z,97864.55
2023-05-04T00:52:43.703Z,97862.52
2023-05-04T00:55:12.238Z,97863.26
2023-05-04T00:57:42.002Z,97858.95
2023-05-04T01:00:13.322Z,97859.98
2023-05-04T01:02:42.345Z,97861.95
2023-05-04T01:05:12.652Z,97870.66
2023-05-04T01:07:59.288Z,97868.14
2023-05-04T01:10:39.888Z,97867.61
2023-05-04T01:13:12.458Z,97863.64
2023-05-04T01:15:42.222Z,97861.38
2023-05-04T01:18:10.233Z,97855.39
2023-05-04T01:20:38.173Z,97852.77
2023-05-04T01:23:06.935Z,97853.17
2023-05-04T01:25:44.582Z,97853.39
2023-05-04T01:28:20.863Z,97847.71
2023-05-04T01:30:53.731Z,97846.05
2023-05-04T01:33:22.373Z,97847.27
2023-05-04T01:35:50.805Z,97845.83
2023-05-04T01:38:18.948Z,97844.77
2023-05-04T01:40:48.155Z,97843.69
2023-05-04T01:43:16.175Z,97847.06
2023-05-04T01:45:44.160Z,97845.16
2023-05-04T01:48:13.653Z,97844.29
2023-05-04T01:50:41.664Z,97843.81
2023-05-04T01:53:10.355Z,97839.96
2023-05-04T01:55:38.261Z,97842.44
2023-05-04T01:58:06.450Z,97846.31
2023-05-04T02:00:34.466Z,97851.59
2023-05-04T02:03:02.616Z,97852.68
2023-05-04T02:05:30.901Z,97852.31
2023-05-04T02:07:58.891Z,97846.34
2023-05-04T02:10:27.041Z,97848.56
2023-05-04T02:12:55.146Z,97843.45
2023-05-04T02:15:23.454Z,97844.70
2023-05-04T02:17:51.877Z,97849.00
2023-05-04T02:20:20.131Z,97854.15
2023-05-04T02:22:48.028Z,97864.20
2023-05-04T02:25:16.540Z,97868.77
2023-05-04T02:27:44.540Z,97866.13
2023-05-04T02:30:13.273Z,97863.55
2023-05-04T02:32:41.575Z,97863.29
2023-05-04T02:35:10.115Z,97856.27
2023-05-04T02:37:38.209Z,97851.61
2023-05-04T02:40:07.056Z,97852.15
2023-05-04T02:42:36.015Z,97845.48
2023-05-04T02:45:04.256Z,97841.58
2023-05-04T02:47:32.491Z,97842.28
2023-05-04T02:50:01.957Z,97838.20
2023-05-04T02:52:29.989Z,97829.08
2023-05-04T02:54:58.626Z,97822.79
2023-05-04T02:57:26.652Z,97822.84
2023-05-04T02:59:54.639Z,97824.64
2023-05-04T03:02:22.913Z,97828.36
2023-05-04T03:04:51.028Z,97834.75
2023-05-04T03:07:19.035Z,97839.39
2023-05-04T03:09:47.960Z,97841.34
2023-05-04T03:12:16.068Z,97848.28
2023-05-04T03:14:44.009Z,97850.06
2023-05-04T03:17:12.137Z,97848.12
2023-05-04T03:19:40.640Z,97848.76
2023-05-04T03:22:09.834Z,97847.34
2023-05-04T03:24:40.102Z,97849.92
2023-05-04T03:27:08.236Z,97856.11
2023-05-04T03:29:37.271Z,97862.00
2023-05-04T03:32:06.049Z,97866.85
2023-05-04T03:34:34.477Z,97869.22
2023-05-04T03:37:04.846Z,97871.40
2023-05-04T03:39:34.227Z,97870.06
2023-05-04T03:42:02.682Z,97868.80
2023-05-04T03:44:30.873Z,97871.79
2023-05-04T03:46:58.895Z,97875.78
2023-05-04T03:49:27.094Z,97875.77
2023-05-04T03:51:55.424Z,97874.84
2023-05-04T03:54:23.779Z,97883.95
2023-05-04T03:56:53.214Z,97882.58
2023-05-04T03:59:21.209Z,97884.48
2023-05-04T04:01:49.852Z,97886.02
2023-05-04T04:04:18.073Z,97887.20
2023-05-04T04:06:46.818Z,97892.04
2023-05-04T04:09:14.966Z,97891.40
2023-05-04T04:11:42.979Z,97894.74
2023-05-04T04:14:11.318Z,97897.75
2023-05-04T04:16:39.486Z,97901.07
2023-05-04T04:19:07.768Z,97905.73
2023-05-04T04:21:35.800Z,97902.34
2023-05-04T04:24:04.522Z,97897.48
2023-05-04T04:26:32.706Z,97904.12
2023-05-04T04:29:00.884Z,97909.77
2023-05-04T04:31:28.922Z,97910.33
2023-05-04T04:33:57.074Z,97906.04
2023-05-04T04:36:25.851Z,97903.23
2023-05-04T04:38:54.529Z,97895.84
2023-05-04T04:41:25.876Z,97898.13
2023-05-04T04:43:53.934Z,97896.88
2023-05-04T04:46:22.432Z,97896.19
2023-05-04T04:48:53.752Z,97894.41
2023-05-04T04:51:21.967Z,97902.31
2023-05-04T04:53:51.442Z,97908.77
2023-05-04T04:56:19.649Z,97912.35
2023-05-04T04:58:49.152Z,97912.92
2023-05-04T05:01:18.926Z,97915.19
2023-05-04T05:03:47.813Z,97917.31
2023-05-04T05:06:16.312Z,97916.94
2023-05-04T05:08:44.953Z,97920.83
2023-05-04T05:11:13.771Z,97921.26
2023-05-04T05:13:42.596Z,97925.92
2023-05-04T05:16:10.767Z,97928.71
2023-05-04T05:18:38.897Z,97919.95
2023-05-04T05:21:07.535Z,97921.52
2023-05-04T05:23:35.966Z,97919.19
2023-05-04T05:26:03.944Z,97923.59
2023-05-04T05:28:32.303Z,97923.23
2023-05-04T05:31:00.737Z,97925.45
2023-05-04T05:33:29.123Z,97923.55
2023-05-04T05:35:57.385Z,97923.43
2023-05-04T05:38:26.862Z,97929.79
2023-05-04T05:40:55.619Z,97927.50
2023-05-04T05:43:23.957Z,97925.75
2023-05-04T05:45:52.424Z,97930.91
2023-05-04T05:48:20.663Z,97926.77
2023-05-04T05:50:48.805Z,97923.65
2023-05-04T05:53:16.946Z,97923.31
2023-05-04T05:55:46.598Z,97923.53
2023-05-04T05:58:15.053Z,97923.61
2023-05-04T06:00:43.160Z,97920.86
2023-05-04T06:03:12.084Z,97920.08
2023-05-04T06:05:41.347Z,97932.27
2023-05-04T06:08:09.596Z,97933.06
2023-05-04T06:10:38.967Z,97933.52
2023-05-04T06:13:06.996Z,97933.38
2023-05-04T06:15:36.637Z,97934.69
2023-05-04T06:18:07.893Z,97936.76
2023-05-04T06:20:37.568Z,97938.41
2023-05-04T06:23:05.602Z,97941.27
2023-05-04T06:25:34.309Z,97942.18
2023-05-04T06:28:02.967Z,97944.23
2023-05-04T06:30:31.322Z,97947.09
2023-05-04T06:33:01.697Z,97946.05
2023-05-04T06:35:32.288Z,97947.08
2023-05-04T06:38:01.612Z,97946.55
2023-05-04T06:40:31.957Z,97950.42
2023-05-04T06:43:00.994Z,97953.56
2023-05-04T06:45:29.625Z,97955.73
2023-05-04T06:47:59.736Z,97955.91
2023-05-04T06:50:29.248Z,97956.09
2023-05-04T06:53:09.664Z,97961.07
2023-05-04T06:55:45.717Z,97957.27
2023-05-04T06:58:14.102Z,97957.87
2023-05-04T07:00:42.679Z,97960.10
2023-05-04T07:03:11.462Z,97959.70
2023-05-04T07:05:39.936Z,97955.22
2023-05-04T07:08:10.882Z,97958.62
2023-05-04T07:10:41.722Z,97959.44
2023-05-04T07:13:10.815Z,97960.73
2023-05-04T07:15:39.437Z,97961.61
2023-05-04T07:18:08.162Z,97958.47
2023-05-04T07:20:39.104Z,97961.27
2023-05-04T07:23:07.468Z,97961.12
2023-05-04T07:25:36.450Z,97956.90
2023-05-04T07:28:06.977Z,97961.46
2023-05-04T07:30:36.715Z,97962.48
2023-05-04T07:33:05.026Z,97962.45
2023-05-04T07:36:18.607Z,97960.13
2023-05-04T07:38:47.773Z,97961.19
2023-05-04T07:41:23.311Z,97959.70
2023-05-04T07:43:54.911Z,97961.35
2023-05-04T07:46:23.463Z,97961.06
2023-05-04T07:48:51.682Z,97958.94
2023-05-04T07:51:23.698Z,97959.06
2023-05-04T07:53:52.649Z,97960.68
2023-05-04T07:56:21.482Z,97961.06
2023-05-04T07:58:50.209Z,97963.66
2023-05-04T08:01:20.094Z,97965.70
2023-05-04T08:03:48.772Z,97965.08
2023-05-04T08:06:18.014Z,97970.35
2023-05-04T08:08:52.744Z,97969.89
2023-05-04T08:11:23.764Z,97965.37
2023-05-04T08:13:53.332Z,97961.52
2023-05-04T08:16:26.008Z,97960.04
2023-05-04T08:18:57.444Z,97961.04
2023-05-04T08:21:31.194Z,97960.39
2023-05-04T08:24:05.440Z,97958.05
2023-05-04T08:26:41.291Z,97963.06
2023-05-04T08:29:20.540Z,97961.86
2023-05-04T08:31:52.625Z,97959.57
2023-05-04T08:34:22.251Z,97960.05
2023-05-04T08:36:50.901Z,97958.88
2023-05-04T08:39:19.570Z,97960.41
2023-05-04T08:41:48.544Z,97963.42
2023-05-04T08:44:22.479Z,97967.74
2023-05-04T08:46:56.431Z,97971.02
2023-05-04T08:50:01.426Z,97973.37
2023-05-04T08:52:30.253Z,97970.88
2023-05-04T08:54:59.397Z,97971.63
2023-05-04T08:57:33.454Z,97972.73
2023-05-04T09:00:05.731Z,97978.86
2023-05-04T09:02:35.340Z,97984.34
2023-05-04T09:05:08.169Z,97991.84
2023-05-04T09:07:39.019Z,97995.21
2023-05-04T09:10:15.976Z,97998.82
2023-05-04T09:13:31.303Z,98001.90
2023-05-04T09:16:12.219Z,98004.27
2023-05-04T09:18:52.384Z,98002.98
2023-05-04T09:21:31.737Z,98006.61
2023-05-04T09:24:02.430Z,98009.91
2023-05-04T09:26:36.004Z,98008.20
2023-05-04T09:33:17.451Z,98009.11
2023-05-04T09:35:50.004Z,98006.84
2023-05-04T09:38:35.628Z,98007.26
2023-05-04T09:41:34.489Z,98005.92
2023-05-04T09:44:19.898Z,98006.45
2023-05-04T09:47:19.548Z,98007.52
2023-05-04T09:49:52.431Z,98006.61
2023-05-04T09:52:27.790Z,98011.17
2023-05-04T09:54:58.514Z,98007.94
2023-05-04T09:57:27.564Z,98009.80
2023-05-04T09:59:57.610Z,98009.30
2023-05-04T10:02:26.784Z,98011.73
2023-05-04T10:04:58.712Z,98013.17
2023-05-04T10:07:31.640Z,98010.02
2023-05-04T10:10:01.429Z,98011.30
2023-05-04T10:12:30.466Z,98015.96
2023-05-04T10:15:02.418Z,98011.54
2023-05-04T10:17:40.021Z,98019.02
2023-05-04T10:20:36.050Z,98012.86
2023-05-04T10:23:31.449Z,98014.30
2023-05-04T10:26:43.486Z,98014.94
2023-05-04T10:29:23.613Z,98014.33
2023-05-04T10:32:04.554Z,98013.02
2023-05-04T10:34:35.178Z,98014.05
2023-05-04T10:37:06.686Z,98010.10
2023-05-04T10:39:37.312Z,98006.64
2023-05-04T10:42:15.115Z,98006.37
2023-05-04T10:44:56.352Z,98003.69
2023-05-04T10:47:41.213Z,98003.36
2023-05-04T10:50:15.245Z,98000.98
2023-05-04T10:52:48.897Z,97999.98
2023-05-04T10:55:24.052Z,97995.50
2023-05-04T10:57:58.749Z,97995.16
2023-05-04T11:00:42.478Z,97992.92
2023-05-04T11:03:22.880Z,97989.02
2023-05-04T11:05:56.852Z,97987.98
2023-05-04T11:08:27.689Z,97987.08
2023-05-04T11:11:10.864Z,97985.23
2023-05-04T11:13:52.496Z,97984.17
2023-05-04T11:16:34.054Z,97986.22
2023-05-04T11:19:12.737Z,97986.04
2023-05-04T11:21:41.864Z,97984.20
2023-05-04T11:24:10.701Z,97985.07
2023-05-04T11:26:48.265Z,97981.89
2023-05-04T11:29:19.672Z,97984.20
2023-05-04T11:32:06.234Z,97985.23
2023-05-04T11:34:46.520Z,97987.09
2023-05-04T11:37:14.981Z,97985.81
2023-05-04T11:39:44.666Z,97983.56
2023-05-04T11:42:13.332Z,97984.87
2023-05-04T11:44:43.606Z,97984.09
2023-05-04T11:47:54.833Z,97981.69
2023-05-04T11:53:19.884Z,97984.31
2023-05-04T11:56:03.163Z,97987.50
2023-05-04T11:58:36.455Z,97989.03
2023-05-04T12:01:12.692Z,97983.77
2023-05-04T12:04:00.977Z,97985.22
2023-05-04T12:06:41.152Z,97987.02
2023-05-04T12:09:16.823Z,97985.66
2023-05-04T12:11:54.936Z,97987.80
2023-05-04T12:14:28.715Z,97987.34
2023-05-04T12:20:00.995Z,97989.75
2023-05-04T12:22:36.085Z,97983.63
2023-05-04T12:25:12.538Z,97984.81
2023-05-04T12:27:56.349Z,97983.57
2023-05-04T12:30:32.705Z,97978.86
2023-05-04T12:33:14.822Z,97977.34
2023-05-04T12:36:08.661Z,97974.03
2023-05-04T12:38:46.405Z,97967.11
2023-05-04T12:41:46.255Z,97967.60
2023-05-04T12:44:35.775Z,97966.17
2023-05-04T12:47:15.506Z,97965.58
2023-05-04T12:49:46.711Z,97963.23
2023-05-04T12:52:22.526Z,97962.08
2023-05-04T12:54:59.233Z,97962.55
2023-05-04T12:57:39.391Z,97962.92
2023-05-04T13:00:18.696Z,97960.70
2023-05-04T13:03:05.799Z,97955.77
2023-05-04T13:05:41.768Z,97951.83
2023-05-04T13:08:14.058Z,97949.96
2023-05-04T13:10:43.776Z,97949.59
2023-05-04T13:13:19.632Z,97951.52
2023-05-04T13:15:51.534Z,97949.53
2023-05-04T13:18:35.732Z,97952.42
2023-05-04T13:21:10.091Z,97949.77
2023-05-04T13:23:39.274Z,97952.48
2023-05-04T13:26:12.455Z,97951.38
2023-05-04T13:28:57.256Z,97950.73
2023-05-04T13:31:32.151Z,97951.05
2023-05-04T13:34:00.704Z,97951.27
2023-05-04T13:36:31.967Z,97949.48
2023-05-04T13:39:02.314Z,97949.41
2023-05-04T13:41:32.024Z,97946.86
2023-05-04T13:44:03.704Z,97945.46
2023-05-04T13:46:37.557Z,97940.91
2023-05-04T13:49:09.511Z,97945.89
2023-05-04T13:51:46.089Z,97940.59
2023-05-04T13:54:21.791Z,97939.97
2023-05-04T13:57:00.127Z,97939.35
2023-05-04T13:59:44.597Z,97939.26
2023-05-04T14:02:36.149Z,97937.23
2023-05-04T14:05:07.971Z,97937.88
2023-05-04T14:07:37.438Z,97940.54
2023-05-04T14:10:11.498Z,97936.84
2023-05-04T14:12:48.566Z,97934.63
2023-05-04T14:15:22.842Z,97935.14
2023-05-04T14:18:02.309Z,97934.79
2023-05-04T14:20:35.811Z,97933.10
2023-05-04T14:23:08.256Z,97932.50
2023-05-04T14:25:37.833Z,97936.91
2023-05-04T14:28:10.453Z,97937.47
2023-05-04T14:30:40.565Z,97937.42
2023-05-04T14:33:09.639Z,97938.08
2023-05-04T14:35:45.083Z,97936.20
2023-05-04T14:38:15.863Z,97931.72
2023-05-04T14:41:02.783Z,97930.98
2023-05-04T14:43:35.277Z,97932.61
2023-05-04T14:46:10.231Z,97931.76
2023-05-04T14:48:39.871Z,97930.51
2023-05-04T14:51:11.069Z,97933.68
2023-05-04T14:53:41.766Z,97933.59
2023-05-04T14:56:12.101Z,97936.29
2023-05-04T14:58:41.417Z,97933.92
2023-05-04T15:01:10.203Z,97934.38
2023-05-04T15:03:44.738Z,97930.88
2023-05-04T15:06:13.140Z,97927.83
2023-05-04T15:08:42.242Z,97928.39
2023-05-04T15:11:19.450Z,97931.00
2023-05-04T15:13:51.170Z,97930.45
2023-05-04T15:16:20.787Z,97930.98
2023-05-04T15:18:49.244Z,97930.45
2023-05-04T15:21:35.004Z,97927.44
2023-05-04T15:24:10.273Z,97929.92
2023-05-04T15:26:45.130Z,97930.86
2023-05-04T15:29:13.881Z,97931.63
2023-05-04T15:31:42.388Z,97929.54
2023-05-04T15:34:13.236Z,97936.45
2023-05-04T15:36:43.684Z,97937.04
2023-05-04T15:39:13.559Z,97938.29
2023-05-04T15:41:43.012Z,97937.80
2023-05-04T15:44:11.244Z,97937.38
2023-05-04T15:46:39.676Z,97936.25
2023-05-04T15:49:08.393Z,97936.17
2023-05-04T15:51:38.573Z,97937.29
2023-05-04T15:54:06.648Z,97934.39
2023-05-04T15:56:35.322Z,97930.35
2023-05-04T15:59:07.600Z,97929.46
2023-05-04T16:01:35.923Z,97930.90
2023-05-04T16:04:09.632Z,97928.48
2023-05-04T16:06:39.684Z,97924.40
2023-05-04T16:09:10.249Z,97923.75
2023-05-04T16:11:39.087Z,97925.96
2023-05-04T16:14:07.323Z,97929.08
2023-05-04T16:16:35.752Z,97926.38
2023-05-04T16:19:05.612Z,97923.45
2023-05-04T16:21:37.389Z,97921.70
2023-05-04T16:24:07.647Z,97922.34
2023-05-04T16:26:37.279Z,97921.96
2023-05-04T16:29:06.876Z,97925.63
2023-05-04T16:31:35.301Z,97927.95
2023-05-04T16:34:03.550Z,97931.25
2023-05-04T16:36:32.197Z,97931.36
2023-05-04T16:41:48.440Z,97938.18
2023-05-04T16:44:18.077Z,97941.23
2023-05-04T16:46:46.438Z,97942.11
2023-05-04T16:49:18.087Z,97943.83
2023-05-04T16:51:46.349Z,97947.73
2023-05-04T16:54:15.343Z,97946.09
2023-05-04T16:56:43.476Z,97949.92
2023-05-04T16:59:13.313Z,97955.23
2023-05-04T17:01:42.312Z,97958.66
2023-05-04T17:04:10.999Z,97960.39
2023-05-04T17:06:39.088Z,97964.77
2023-05-04T17:09:07.333Z,97966.33
2023-05-04T17:11:35.509Z,97971.41
2023-05-04T17:14:03.899Z,97974.02
2023-05-04T17:16:32.552Z,97977.80
2023-05-04T17:19:01.031Z,97982.51
2023-05-04T17:21:29.690Z,97984.14
2023-05-04T17:23:57.913Z,97986.64
2023-05-04T17:26:27.430Z,97989.62
2023-05-04T17:28:55.488Z,97989.58
2023-05-04T17:31:23.579Z,97993.64
2023-05-04T17:33:51.697Z,97995.73
2023-05-04T17:36:20.426Z,97999.45
2023-05-04T17:38:48.861Z,97999.78
2023-05-04T17:41:17.300Z,98002.61
2023-05-04T17:43:47.506Z,98005.36
2023-05-04T17:46:16.229Z,98001.70
2023-05-04T17:48:46.100Z,98005.67
2023-05-04T17:51:14.367Z,98008.44
2023-05-04T17:53:42.670Z,98015.15
2023-05-04T17:56:12.544Z,98018.57
2023-05-04T17:58:40.612Z,98021.09
2023-05-04T18:01:08.982Z,98022.79
2023-05-04T18:03:37.938Z,98026.02
2023-05-04T18:06:11.469Z,98030.37
2023-05-04T18:08:47.003Z,98033.96
2023-05-04T18:11:21.575Z,98032.70
2023-05-04T18:13:51.130Z,98032.01
2023-05-04T18:16:19.599Z,98035.27
2023-05-04T18:18:47.706Z,98043.69
2023-05-04T18:21:15.922Z,98048.31
2023-05-04T18:23:44.045Z,98056.01
2023-05-04T18:26:20.856Z,98058.24
2023-05-04T18:28:49.747Z,98057.59
2023-05-04T18:31:19.119Z,98060.71
2023-05-04T18:33:47.827Z,98062.63
2023-05-04T18:36:16.073Z,98060.71
2023-05-04T18:38:45.723Z,98064.92
2023-05-04T18:41:13.864Z,98072.34
2023-05-04T18:43:42.221Z,98077.31
2023-05-04T18:46:10.265Z,98078.42
2023-05-04T18:48:40.477Z,98086.30
2023-05-04T18:51:08.534Z,98089.36
2023-05-04T18:53:39.377Z,98095.38
2023-05-04T18:56:11.480Z,98100.55
2023-05-04T18:58:40.143Z,98101.90
2023-05-04T19:01:08.738Z,98103.77
2023-05-04T19:03:41.268Z,98109.30
2023-05-04T19:06:09.453Z,98113.21
2023-05-04T19:08:37.637Z,98115.41
2023-05-04T19:11:05.844Z,98115.17
2023-05-04T19:13:34.444Z,98113.75
2023-05-04T19:16:02.442Z,98114.20
2023-05-04T19:18:30.779Z,98113.21
2023-05-04T19:21:04.283Z,98113.64
2023-05-04T19:23:32.963Z,98115.27
2023-05-04T19:26:01.098Z,98114.41
2023-05-04T19:28:29.160Z,98115.60
2023-05-04T19:30:57.641Z,98115.13
2023-05-04T19:33:40.507Z,98119.86
2023-05-04T19:36:17.246Z,98123.13
2023-05-04T19:38:46.239Z,98124.55
2023-05-04T19:41:14.814Z,98128.30
2023-05-04T19:43:42.995Z,98128.75
2023-05-04T19:46:11.230Z,98124.70
2023-05-04T19:48:42.557Z,98126.41
2023-05-04T19:51:10.682Z,98129.51
2023-05-04T19:53:38.800Z,98131.13
2023-05-04T19:56:07.157Z,98131.77
2023-05-04T19:58:35.232Z,98132.58
2023-05-04T20:01:03.413Z,98130.86
2023-05-04T20:03:32.383Z,98129.77
2023-05-04T20:06:00.521Z,98128.34
2023-05-04T20:08:30.494Z,98130.11
2023-05-04T20:10:58.550Z,98123.30
2023-05-04T20:13:27.230Z,98120.01
2023-05-04T20:15:55.576Z,98118.66
2023-05-04T20:18:23.831Z,98121.13
2023-05-04T20:20:52.951Z,98126.52
2023-05-04T20:23:21.443Z,98124.63
2023-05-04T20:25:50.073Z,98124.25
2023-05-04T20:28:18.083Z,98129.00
2023-05-04T20:30:46.831Z,98133.20
2023-05-04T20:33:15.024Z,98132.75
2023-05-04T20:35:45.280Z,98134.35
2023-05-04T20:38:15.505Z,98137.40
2023-05-04T20:40:43.710Z,98142.63
2023-05-04T20:43:12.654Z,98145.27
2023-05-04T20:45:40.902Z,98143.46
2023-05-04T20:48:09.589Z,98145.09
2023-05-04T20:50:39.802Z,98149.15
2023-05-04T20:53:07.862Z,98154.21
2023-05-04T20:55:40.590Z,98152.48
2023-05-04T20:58:09.455Z,98154.92
2023-05-04T21:00:37.588Z,98154.61
2023-05-04T21:03:06.174Z,98154.40
2023-05-04T21:05:39.096Z,98150.71
2023-05-04T21:08:07.165Z,98154.61
2023-05-04T21:10:35.711Z,98154.91
2023-05-04T21:13:04.455Z,98160.52
2023-05-04T21:15:32.557Z,98160.77
2023-05-04T21:18:00.561Z,98165.88
2023-05-04T21:20:28.794Z,98165.53
2023-05-04T21:22:56.938Z,98166.01
2023-05-04T21:25:25.109Z,98167.19
2023-05-04T21:27:53.076Z,98168.60
2023-05-04T21:30:21.456Z,98168.09
2023-05-04T21:32:49.617Z,98163.58
2023-05-04T21:35:21.138Z,98166.83
2023-05-04T21:37:49.392Z,98165.06
2023-05-04T21:40:20.317Z,98158.89
2023-05-04T21:42:48.540Z,98155.48
2023-05-04T21:45:19.443Z,98155.97
2023-05-04T21:47:47.734Z,98150.09
2023-05-04T21:50:16.384Z,98146.15
2023-05-04T21:52:44.446Z,98147.11
2023-05-04T21:55:12.550Z,98146.41
2023-05-04T21:57:40.603Z,98147.55
2023-05-04T22:00:12.439Z,98145.62
2023-05-04T22:02:40.840Z,98143.59
2023-05-04T22:05:11.041Z,98136.74
2023-05-04T22:07:39.156Z,98137.45
2023-05-04T22:10:08.227Z,98137.15
2023-05-04T22:12:41.085Z,98138.69
2023-05-04T22:15:10.321Z,98140.34
2023-05-04T22:17:38.967Z,98140.35
2023-05-04T22:20:07.961Z,98140.86
2023-05-04T22:22:36.299Z,98142.33
2023-05-04T22:25:04.552Z,98141.02
2023-05-04T22:27:32.966Z,98138.75
2023-05-04T22:30:01.279Z,98134.55
2023-05-04T22:32:29.338Z,98133.20
2023-05-04T22:34:57.687Z,98134.77
2023-05-04T22:37:25.775Z,98134.40
2023-05-04T22:39:53.817Z,98134.56
2023-05-04T22:42:21.799Z,98137.59
2023-05-04T22:44:49.894Z,98132.92
2023-05-04T22:47:17.969Z,98130.00
2023-05-04T22:49:46.023Z,98125.15
2023-05-04T22:52:14.122Z,98126.91
2023-05-04T22:54:42.287Z,98127.39
2023-05-04T22:57:10.814Z,98121.66
2023-05-04T22:59:38.997Z,98118.98
2023-05-04T23:02:07.377Z,98118.72
2023-05-04T23:04:38.006Z,98111.22
2023-05-04T23:07:06.758Z,98105.56
2023-05-04T23:09:45.290Z,98104.02
2023-05-04T23:12:14.393Z,98107.85
2023-05-04T23:14:42.518Z,98109.95
2023-05-04T23:17:10.999Z,98110.25
2023-05-04T23:19:39.334Z,98106.72
2023-05-04T23:22:07.297Z,98105.70
2023-05-04T23:24:35.490Z,98105.58
2023-05-04T23:27:04.191Z,98110.16
2023-05-04T23:29:32.306Z,98115.73
2023-05-04T23:32:01.333Z,98120.79
2023-05-04T23:34:29.508Z,98122.52
2023-05-04T23:36:57.725Z,98125.16
2023-05-04T23:39:25.907Z,98118.77
2023-05-04T23:41:54.252Z,98116.38
2023-05-04T23:44:22.417Z,98114.90
2023-05-04T23:46:51.774Z,98116.31
2023-05-04T23:49:19.837Z,98114.09
2023-05-04T23:51:48.375Z,98107.33
2023-05-04T23:54:16.481Z,98109.44
2023-05-04T23:56:44.677Z,98113.76
2023-05-04T23:59:12.670Z,98115.01
